Time;durP1;ratioP1;P1;durP2;ratioP2;P2;SDS_P1;SDS_P2;PMS_P1;PMS_P2;Temp;Humidity;BMP_temperature;BMP_pressure;BME280_temperature;BME280_humidity;BME280_pressure;Samples;Min_cycle;Max_cycle;Signal;HPM_P1;HPM_P2
2022/10/18 00:01:31;;;;;;;12.13;7.07;;;;;;;13.94;100.00;99033.16;5038640;28;20261;-72
2022/10/18 00:03:57;;;;;;;11.83;7.50;;;;;;;13.95;100.00;99034.00;5038338;28;20265;-72
2022/10/18 00:06:24;;;;;;;10.00;7.40;;;;;;;13.94;100.00;99037.63;5037000;28;20271;-72
2022/10/18 00:08:52;;;;;;;9.17;7.20;;;;;;;13.92;100.00;99039.53;5038381;28;20681;-72
2022/10/18 00:11:19;;;;;;;9.20;7.20;;;;;;;13.90;100.00;99041.44;5038308;28;20287;-72
2022/10/18 00:13:45;;;;;;;9.27;7.07;;;;;;;13.88;100.00;99043.38;5037582;28;20266;-72
2022/10/18 00:16:14;;;;;;;10.07;7.10;;;;;;;13.86;100.00;99045.25;5037863;28;20655;-73
2022/10/18 00:18:41;;;;;;;9.03;6.50;;;;;;;13.84;100.00;99047.16;5038166;28;20285;-72
2022/10/18 00:21:10;;;;;;;7.90;6.57;;;;;;;13.81;100.00;99050.06;5038193;28;20262;-73
2022/10/18 00:23:37;;;;;;;9.50;6.40;;;;;;;13.79;100.00;99051.94;5038088;28;20257;-72
2022/10/18 00:26:08;;;;;;;12.13;7.40;;;;;;;13.79;100.00;99050.16;5038051;28;20260;-72
2022/10/18 00:28:36;;;;;;;9.27;7.13;;;;;;;13.80;100.00;99053.63;5038030;28;20300;-72
2022/10/18 00:31:14;;;;;;;9.93;7.47;;;;;;;13.79;100.00;99054.59;5036095;28;20503;-72
2022/10/18 00:33:43;;;;;;;10.43;6.63;;;;;;;13.82;100.00;99046.44;5037916;28;20269;-72
2022/10/18 00:36:10;;;;;;;10.83;7.17;;;;;;;13.85;100.00;99043.56;5033116;28;20262;-73
2022/10/18 00:38:38;;;;;;;10.10;7.03;;;;;;;13.81;100.00;99042.91;5037841;28;20618;-72
2022/10/18 00:41:08;;;;;;;10.97;8.10;;;;;;;13.81;100.00;99036.75;5037761;28;20269;-72
2022/10/18 00:43:50;;;;;;;10.50;7.50;;;;;;;13.82;100.00;99033.16;5037605;28;20266;-72
2022/10/18 00:46:17;;;;;;;8.37;6.20;;;;;;;13.79;100.00;99034.22;5037627;28;20274;-72
2022/10/18 00:48:44;;;;;;;9.03;6.37;;;;;;;13.79;100.00;99041.31;5037888;28;20581;-72
2022/10/18 00:51:11;;;;;;;8.33;5.73;;;;;;;13.78;100.00;99036.97;5037599;28;20292;-72
2022/10/18 00:53:38;;;;;;;8.97;6.50;;;;;;;13.79;100.00;99042.19;5037649;28;20269;-73
2022/10/18 00:56:07;;;;;;;7.63;6.07;;;;;;;13.84;100.00;99041.84;5034564;28;20283;-73
2022/10/18 00:58:34;;;;;;;8.30;6.87;;;;;;;13.89;100.00;99045.06;5036662;28;20268;-73
2022/10/18 01:01:01;;;;;;;12.73;7.50;;;;;;;14.02;100.00;99044.13;5037402;28;20269;-72
2022/10/18 01:03:28;;;;;;;11.40;7.27;;;;;;;14.12;100.00;99041.69;5037373;28;20264;-73
2022/10/18 01:05:54;;;;;;;14.70;6.97;;;;;;;14.20;100.00;99047.34;5037393;28;20318;-72
2022/10/18 01:08:44;;;;;;;8.30;6.10;;;;;;;14.24;100.00;99046.19;5037277;28;20270;-72
2022/10/18 01:11:33;;;;;;;11.07;6.17;;;;;;;14.30;100.00;99051.06;5024761;28;20731;-72
2022/10/18 01:14:13;;;;;;;9.70;6.90;;;;;;;14.33;100.00;99045.53;5037580;28;20276;-73
2022/10/18 01:16:48;;;;;;;8.47;6.40;;;;;;;14.30;100.00;99048.41;5037202;28;20266;-72
2022/10/18 01:19:48;;;;;;;9.70;6.20;;;;;;;14.22;100.00;99046.28;5037034;28;20711;-73
2022/10/18 01:22:23;;;;;;;8.10;5.97;;;;;;;14.19;100.00;99041.16;5027300;28;20312;-73
2022/10/18 01:25:05;;;;;;;9.23;5.87;;;;;;;14.18;100.00;99041.25;5036970;28;20267;-73
2022/10/18 01:27:57;;;;;;;10.10;6.17;;;;;;;14.21;100.00;99046.38;5034370;28;20598;-72
2022/10/18 01:30:37;;;;;;;9.70;5.80;;;;;;;14.26;100.00;99054.91;5036987;28;20673;-73
2022/10/18 01:33:11;;;;;;;8.30;5.63;;;;;;;14.32;100.00;99050.03;5037157;28;20285;-72
2022/10/18 01:35:44;;;;;;;7.93;6.10;;;;;;;14.37;100.00;99053.19;5036880;28;20274;-72
2022/10/18 01:38:16;;;;;;;7.30;5.43;;;;;;;14.41;100.00;99059.13;5037049;28;20595;-72
2022/10/18 01:40:47;;;;;;;8.33;5.60;;;;;;;14.45;100.00;99060.63;5036975;28;20234;-73
2022/10/18 01:43:16;;;;;;;7.37;5.53;;;;;;;14.48;100.00;99061.25;5036867;28;20603;-72
2022/10/18 01:45:45;;;;;;;8.00;5.57;;;;;;;14.53;100.00;99063.59;5036967;28;20596;-72
2022/10/18 01:48:13;;;;;;;7.27;5.70;;;;;;;14.54;100.00;99058.16;5035790;28;20700;-72
2022/10/18 01:50:40;;;;;;;6.40;5.60;;;;;;;14.55;100.00;99056.38;5036306;28;20266;-72
2022/10/18 01:53:21;;;;;;;7.03;5.33;;;;;;;14.54;100.00;99065.31;5036802;28;20618;-73
2022/10/18 01:55:57;;;;;;;7.50;5.43;;;;;;;14.56;100.00;99052.75;5036486;28;20293;-72
2022/10/18 01:58:31;;;;;;;7.23;5.10;;;;;;;14.54;100.00;99060.00;5036723;28;20270;-72
2022/10/18 02:01:06;;;;;;;9.03;5.60;;;;;;;14.52;100.00;99056.56;5036657;28;20272;-72
2022/10/18 02:03:37;;;;;;;7.47;5.40;;;;;;;14.49;100.00;99062.13;5036788;28;20288;-73
2022/10/18 02:06:07;;;;;;;7.67;5.53;;;;;;;14.44;100.00;99057.13;5036661;28;20261;-73
2022/10/18 02:08:38;;;;;;;7.87;6.07;;;;;;;14.40;100.00;99062.75;5031771;28;20638;-73
2022/10/18 02:11:07;;;;;;;9.03;5.93;;;;;;;14.42;100.00;99060.88;5036497;28;20261;-73
2022/10/18 02:13:38;;;;;;;6.17;5.37;;;;;;;14.41;100.00;99062.66;5036689;28;20274;-73
2022/10/18 02:16:10;;;;;;;6.27;5.20;;;;;;;14.40;100.00;99052.97;5034813;28;20638;-72
2022/10/18 02:18:42;;;;;;;8.90;5.90;;;;;;;14.40;100.00;99060.09;5036394;28;20268;-72
2022/10/18 02:21:13;;;;;;;7.87;5.90;;;;;;;14.41;100.00;99059.13;5036492;28;20232;-72
2022/10/18 02:23:40;;;;;;;6.97;5.40;;;;;;;14.43;100.00;99054.56;5036504;28;20261;-72
2022/10/18 02:26:07;;;;;;;7.47;5.40;;;;;;;14.45;100.00;99050.84;5036391;28;20513;-72
2022/10/18 02:28:33;;;;;;;5.90;5.13;;;;;;;14.48;100.00;99044.47;5036474;28;20262;-72
2022/10/18 02:31:07;;;;;;;6.63;5.57;;;;;;;14.49;100.00;99048.81;5036401;28;20604;-73
2022/10/18 02:33:39;;;;;;;8.30;5.27;;;;;;;14.52;100.00;99051.25;5036375;28;20677;-73
2022/10/18 02:36:15;;;;;;;7.10;5.10;;;;;;;14.53;100.00;99042.31;5036548;28;20349;-73
2022/10/18 02:38:43;;;;;;;6.93;5.17;;;;;;;14.54;100.00;99033.41;5028253;28;20261;-72
2022/10/18 02:41:10;;;;;;;8.53;4.77;;;;;;;14.57;100.00;99038.47;5038398;28;20261;-73
2022/10/18 02:43:37;;;;;;;6.97;5.20;;;;;;;14.57;100.00;99041.16;5039951;28;20272;-72
2022/10/18 02:46:03;;;;;;;6.73;5.10;;;;;;;14.56;100.00;99036.78;5040005;28;20268;-73
2022/10/18 02:48:31;;;;;;;7.03;5.20;;;;;;;14.55;100.00;99030.59;5039964;28;20761;-74
2022/10/18 02:50:58;;;;;;;6.43;4.90;;;;;;;14.58;100.00;99040.19;5039886;28;20274;-73
2022/10/18 02:53:25;;;;;;;7.17;5.00;;;;;;;14.59;100.00;99039.22;5039879;28;20289;-72
2022/10/18 02:55:51;;;;;;;6.97;5.03;;;;;;;14.60;100.00;99038.28;5038613;28;20309;-73
2022/10/18 02:58:18;;;;;;;6.93;4.83;;;;;;;14.62;100.00;99041.69;5039486;28;20262;-72
2022/10/18 03:00:44;;;;;;;5.53;4.97;;;;;;;14.64;100.00;99032.63;5039923;28;20266;-72
2022/10/18 03:03:11;;;;;;;5.93;5.33;;;;;;;14.65;100.00;99031.66;5039698;28;20264;-72
2022/10/18 03:05:39;;;;;;;7.73;5.30;;;;;;;14.67;100.00;99028.91;5039668;28;20265;-73
2022/10/18 03:08:06;;;;;;;8.53;5.57;;;;;;;14.70;100.00;99031.31;5037996;28;20266;-74
2022/10/18 03:10:32;;;;;;;6.20;5.13;;;;;;;14.68;100.00;99028.81;5039720;28;20273;-73
2022/10/18 03:12:59;;;;;;;6.43;4.73;;;;;;;14.70;100.00;99023.34;5039591;28;20286;-72
2022/10/18 03:15:26;;;;;;;7.97;5.40;;;;;;;14.70;100.00;99032.19;5034588;28;20266;-72
2022/10/18 03:17:52;;;;;;;6.37;4.90;;;;;;;14.74;100.00;99031.00;5039354;28;20271;-72
2022/10/18 03:20:19;;;;;;;6.70;5.27;;;;;;;14.81;100.00;99028.75;5039349;28;20261;-72
2022/10/18 03:22:47;;;;;;;8.03;4.93;;;;;;;14.80;100.00;99032.38;5039370;28;20223;-72
2022/10/18 03:25:14;;;;;;;6.53;4.20;;;;;;;14.82;100.00;99028.66;5039360;28;20308;-72
2022/10/18 03:27:40;;;;;;;5.90;4.40;;;;;;;14.80;100.00;99021.72;5039270;28;20270;-73
2022/10/18 03:30:10;;;;;;;6.67;4.37;;;;;;;14.82;100.00;99027.78;5039186;28;20227;-72
2022/10/18 03:32:37;;;;;;;11.90;4.67;;;;;;;14.75;100.00;99026.53;5037331;28;20654;-73
2022/10/18 03:35:04;;;;;;;6.03;4.37;;;;;;;14.67;100.00;99028.91;5039294;28;20614;-73
2022/10/18 03:37:31;;;;;;;7.33;4.53;;;;;;;14.64;100.00;99035.28;5039048;28;20292;-73
2022/10/18 03:39:59;;;;;;;8.70;4.70;;;;;;;14.58;100.00;99030.41;5039021;28;20276;-72
2022/10/18 03:42:25;;;;;;;5.87;4.57;;;;;;;14.52;100.00;99029.97;5038986;28;20263;-73
2022/10/18 03:44:52;;;;;;;6.37;4.63;;;;;;;14.46;100.00;99019.75;5038910;28;20663;-73
2022/10/18 03:47:19;;;;;;;6.50;4.87;;;;;;;14.35;100.00;99025.03;5038789;28;20272;-72
2022/10/18 03:49:45;;;;;;;9.60;5.20;;;;;;;14.31;100.00;99020.88;5038487;28;20316;-72
2022/10/18 03:52:12;;;;;;;6.50;4.93;;;;;;;14.29;100.00;99017.47;5038629;28;20281;-73
2022/10/18 03:54:38;;;;;;;7.47;5.00;;;;;;;14.26;100.00;99017.66;5038525;28;20649;-74
2022/10/18 03:57:06;;;;;;;7.03;4.70;;;;;;;14.19;100.00;99011.09;5033974;28;20270;-72
2022/10/18 03:59:33;;;;;;;5.83;4.50;;;;;;;14.18;100.00;99014.66;5036960;28;20494;-72
2022/10/18 04:02:00;;;;;;;5.77;4.60;;;;;;;14.17;100.00;99007.66;5038668;28;20257;-72
2022/10/18 04:04:26;;;;;;;6.90;4.80;;;;;;;14.11;100.00;99014.22;5030358;28;20265;-74
2022/10/18 04:06:53;;;;;;;8.70;5.03;;;;;;;14.11;100.00;99016.06;5038559;28;20268;-72
2022/10/18 04:09:20;;;;;;;5.90;4.57;;;;;;;14.13;100.00;99028.25;5038596;28;20596;-74
2022/10/18 04:11:49;;;;;;;5.63;4.70;;;;;;;14.19;100.00;99022.56;5038441;28;20284;-72
2022/10/18 04:14:20;;;;;;;5.13;4.33;;;;;;;14.27;100.00;99024.69;5038412;28;20265;-72
2022/10/18 04:16:46;;;;;;;5.20;4.50;;;;;;;14.36;100.00;99018.75;5038440;28;20225;-72
2022/10/18 04:19:13;;;;;;;7.00;4.30;;;;;;;14.46;100.00;99025.09;5038393;28;20269;-72
2022/10/18 04:21:40;;;;;;;5.97;4.30;;;;;;;14.53;100.00;99026.34;5038347;28;20266;-72
2022/10/18 04:24:07;;;;;;;5.67;4.53;;;;;;;14.56;100.00;99024.34;5037729;28;20229;-72
2022/10/18 04:26:33;;;;;;;6.80;4.57;;;;;;;14.62;100.00;99025.72;5037224;28;20288;-72
2022/10/18 04:29:00;;;;;;;9.50;5.33;;;;;;;14.65;100.00;99025.47;5038195;28;20652;-72
2022/10/18 04:31:28;;;;;;;6.57;4.50;;;;;;;14.64;100.00;99024.66;5038181;28;20304;-72
2022/10/18 04:33:55;;;;;;;7.33;4.40;;;;;;;14.62;100.00;99020.38;5038027;28;20283;-73
2022/10/18 04:36:21;;;;;;;9.40;4.33;;;;;;;14.66;100.00;99032.53;5037974;28;20273;-72
2022/10/18 04:38:49;;;;;;;4.83;4.27;;;;;;;14.66;100.00;99032.53;5037961;28;20261;-72
2022/10/18 04:41:15;;;;;;;4.90;4.40;;;;;;;14.69;100.00;99026.97;5037857;28;20578;-73
2022/10/18 04:43:42;;;;;;;5.93;4.07;;;;;;;14.74;100.00;99027.50;5037772;28;20225;-72
2022/10/18 04:46:08;;;;;;;7.97;4.80;;;;;;;14.73;100.00;99039.94;5037680;28;20273;-72
2022/10/18 04:48:36;;;;;;;6.23;4.43;;;;;;;14.73;100.00;99036.44;5037543;28;20265;-73
2022/10/18 04:51:03;;;;;;;6.17;4.37;;;;;;;14.70;100.00;99037.50;5035970;28;20267;-72
2022/10/18 04:53:30;;;;;;;6.43;4.77;;;;;;;14.70;100.00;99040.16;5037577;28;20787;-73
2022/10/18 04:55:56;;;;;;;8.93;4.90;;;;;;;14.64;100.00;99047.72;5037542;28;20283;-73
2022/10/18 04:58:23;;;;;;;6.93;4.60;;;;;;;14.54;100.00;99046.69;5037501;28;20277;-73
2022/10/18 05:00:50;;;;;;;5.47;4.20;;;;;;;14.43;100.00;99041.28;5036786;28;20702;-72
2022/10/18 05:03:17;;;;;;;6.67;4.40;;;;;;;14.27;100.00;99038.84;5037289;28;20660;-73
2022/10/18 05:05:45;;;;;;;7.33;4.67;;;;;;;14.11;100.00;99047.97;5037389;28;20270;-73
2022/10/18 05:08:11;;;;;;;8.13;4.80;;;;;;;14.01;100.00;99049.53;5026794;28;20265;-73
2022/10/18 05:10:38;;;;;;;5.27;4.57;;;;;;;13.92;100.00;99047.50;5037570;28;20669;-72
2022/10/18 05:13:05;;;;;;;6.50;4.80;;;;;;;13.87;100.00;99055.78;5037190;28;20331;-73
2022/10/18 05:15:31;;;;;;;6.23;4.77;;;;;;;13.82;100.00;99051.75;5037360;28;20262;-73
2022/10/18 05:17:58;;;;;;;7.40;5.53;;;;;;;13.78;100.00;99045.78;5024477;28;20268;-73
2022/10/18 05:20:24;;;;;;;8.47;4.90;;;;;;;13.78;100.00;99047.59;5037218;28;20264;-73
2022/10/18 05:22:52;;;;;;;5.57;4.60;;;;;;;13.78;100.00;99050.25;5037009;28;20646;-73
2022/10/18 05:25:19;;;;;;;5.37;4.60;;;;;;;13.75;100.00;99048.66;5037002;28;20645;-73
2022/10/18 05:27:46;;;;;;;6.93;5.03;;;;;;;13.71;100.00;99041.00;5036981;28;20267;-72
2022/10/18 05:30:12;;;;;;;6.40;4.43;;;;;;;13.67;100.00;99040.34;5036992;28;20261;-73
2022/10/18 05:32:39;;;;;;;5.93;4.37;;;;;;;13.71;100.00;99041.00;5036876;28;20288;-73
2022/10/18 05:35:06;;;;;;;7.03;4.70;;;;;;;13.75;100.00;99034.53;5036946;28;20266;-72
2022/10/18 05:37:33;;;;;;;7.13;5.13;;;;;;;13.67;100.00;99040.34;5036905;28;20263;-72
2022/10/18 05:40:01;;;;;;;5.70;5.03;;;;;;;13.55;100.00;99046.47;5036908;28;20261;-72
2022/10/18 05:42:28;;;;;;;7.57;5.50;;;;;;;13.47;100.00;99037.31;5035093;28;20669;-73
2022/10/18 05:44:54;;;;;;;5.57;4.60;;;;;;;13.40;100.00;99051.97;5036930;28;20620;-72
2022/10/18 05:47:21;;;;;;;5.90;4.40;;;;;;;13.35;100.00;99046.97;5036908;28;20279;-74
2022/10/18 05:49:48;;;;;;;5.93;4.60;;;;;;;13.31;100.00;99047.25;5036938;28;20267;-74
2022/10/18 05:52:15;;;;;;;6.87;4.80;;;;;;;13.29;100.00;99044.69;5036869;28;20265;-73
2022/10/18 05:54:42;;;;;;;6.73;4.63;;;;;;;13.27;100.00;99043.94;5036619;28;20512;-74
2022/10/18 05:57:10;;;;;;;7.60;4.77;;;;;;;13.28;100.00;99044.78;5036626;28;20263;-73
2022/10/18 05:59:37;;;;;;;6.57;4.60;;;;;;;13.29;100.00;99044.69;5036746;28;20272;-72
2022/10/18 06:02:03;;;;;;;6.77;4.53;;;;;;;13.26;100.00;99036.09;5036652;28;20268;-73
2022/10/18 06:04:30;;;;;;;5.47;4.60;;;;;;;13.26;100.00;99046.72;5036843;28;20603;-72
2022/10/18 06:06:56;;;;;;;6.00;4.57;;;;;;;13.27;100.00;99049.25;5036620;28;20264;-74
2022/10/18 06:09:23;;;;;;;6.67;4.93;;;;;;;13.26;100.00;99047.53;5035054;28;20316;-72
2022/10/18 06:11:50;;;;;;;6.60;5.17;;;;;;;13.28;100.00;99042.16;5038038;28;20678;-73
2022/10/18 06:14:18;;;;;;;6.00;4.73;;;;;;;13.31;100.00;99042.78;5040660;28;20328;-73
2022/10/18 06:16:44;;;;;;;7.80;5.53;;;;;;;13.34;100.00;99042.59;5040586;28;20267;-73
2022/10/18 06:19:11;;;;;;;6.13;4.83;;;;;;;13.38;100.00;99046.75;5040738;28;20267;-73
2022/10/18 06:21:37;;;;;;;7.00;4.70;;;;;;;13.43;100.00;99043.78;5040550;28;20264;-72
2022/10/18 06:24:05;;;;;;;5.50;4.63;;;;;;;13.57;100.00;99046.38;5040535;28;20260;-73
2022/10/18 06:26:31;;;;;;;6.33;4.33;;;;;;;13.79;100.00;99049.28;5040452;28;20271;-73
2022/10/18 06:28:58;;;;;;;6.00;4.57;;;;;;;14.06;100.00;99047.41;5040455;28;20261;-73
2022/10/18 06:31:26;;;;;;;5.30;4.43;;;;;;;14.35;100.00;99052.44;5040321;28;20264;-73
2022/10/18 06:33:53;;;;;;;5.57;4.47;;;;;;;14.62;100.00;99054.97;5040268;28;20261;-73
2022/10/18 06:36:21;;;;;;;6.30;4.00;;;;;;;14.86;100.00;99055.88;5038616;28;20578;-73
2022/10/18 06:38:47;;;;;;;6.53;3.83;;;;;;;15.04;100.00;99057.22;5040275;28;20230;-73
2022/10/18 06:41:14;;;;;;;6.43;4.43;;;;;;;15.17;100.00;99056.22;5040143;28;20272;-73
2022/10/18 06:43:41;;;;;;;4.73;4.20;;;;;;;15.28;100.00;99050.94;5040124;28;20266;-74
2022/10/18 06:46:08;;;;;;;6.33;4.03;;;;;;;15.39;100.00;99050.22;5040036;28;20673;-73
2022/10/18 06:48:38;;;;;;;4.93;3.93;;;;;;;15.45;100.00;99052.41;5039985;28;20649;-76
2022/10/18 06:51:06;;;;;;;5.10;4.60;;;;;;;15.51;100.00;99059.97;5031443;28;20267;-75
2022/10/18 06:53:34;;;;;;;4.67;3.57;;;;;;;15.58;100.00;99067.34;5035961;28;20313;-72
2022/10/18 06:56:02;;;;;;;6.57;4.47;;;;;;;15.57;100.00;99064.81;5038899;28;20287;-75
2022/10/18 06:58:28;;;;;;;6.40;4.37;;;;;;;15.62;100.00;99058.19;5031405;28;20640;-74
2022/10/18 07:00:55;;;;;;;6.50;4.60;;;;;;;15.68;100.00;99064.84;5038293;28;20266;-74
2022/10/18 07:03:22;;;;;;;5.33;4.30;;;;;;;15.73;100.00;99065.38;5039744;28;20267;-74
2022/10/18 07:05:50;;;;;;;4.80;4.30;;;;;;;15.78;100.00;99063.22;5039954;28;20660;-74
2022/10/18 07:08:18;;;;;;;5.47;4.00;;;;;;;15.80;100.00;99061.25;5040084;28;20595;-73
2022/10/18 07:10:51;;;;;;;5.17;4.20;;;;;;;15.82;100.00;99072.69;5039837;28;20262;-74
2022/10/18 07:13:18;;;;;;;5.70;4.30;;;;;;;15.87;100.00;99062.50;5039791;28;20274;-74
2022/10/18 07:15:45;;;;;;;5.80;4.00;;;;;;;15.90;100.00;99063.16;5039604;28;20266;-74
2022/10/18 07:18:11;;;;;;;5.17;4.33;;;;;;;15.95;100.00;99060.94;5038181;28;20259;-74
2022/10/18 07:20:38;;;;;;;6.57;4.30;;;;;;;16.01;100.00;99070.31;5039408;28;20271;-74
2022/10/18 07:23:08;;;;;;;4.40;4.00;;;;;;;16.04;100.00;99077.09;5038754;28;20270;-74
2022/10/18 07:25:35;;;;;;;4.83;4.20;;;;;;;16.07;100.00;99075.19;5039431;28;20358;-74
2022/10/18 07:28:01;;;;;;;4.23;3.80;;;;;;;16.13;100.00;99080.03;5037535;28;20263;-74
2022/10/18 07:30:28;;;;;;;4.80;3.70;;;;;;;16.16;100.00;99076.16;5039319;28;20274;-74
2022/10/18 07:32:55;;;;;;;6.03;4.10;;;;;;;16.18;100.00;99084.06;5039168;28;20278;-74
2022/10/18 07:35:21;;;;;;;5.60;4.10;;;;;;;16.18;100.00;99068.03;5039247;28;20273;-74
2022/10/18 07:37:48;;;;;;;4.77;4.00;;;;;;;16.21;100.00;99084.66;5038045;28;20986;-75
2022/10/18 07:40:16;;;;;;;4.33;3.93;;;;;;;16.26;100.00;99082.50;5036533;28;20283;-77
2022/10/18 07:42:42;;;;;;;6.07;3.80;;;;;;;16.33;100.00;99078.38;5038115;28;20275;-77
2022/10/18 07:45:11;;;;;;;5.90;4.20;;;;;;;16.43;100.00;99082.09;5038422;28;20263;-75
2022/10/18 07:47:38;;;;;;;7.50;4.20;;;;;;;16.55;100.00;99072.25;5036936;28;20750;-75
2022/10/18 07:50:05;;;;;;;4.83;4.10;;;;;;;16.67;100.00;99072.16;5035929;28;20330;-75
2022/10/18 07:52:31;;;;;;;4.37;3.93;;;;;;;16.82;100.00;99062.91;5028405;28;20274;-75
2022/10/18 07:54:58;;;;;;;4.30;3.90;;;;;;;16.98;100.00;99068.72;5035458;28;20616;-75
2022/10/18 07:57:26;;;;;;;4.40;4.00;;;;;;;17.16;100.00;99075.28;5037932;28;20263;-75
2022/10/18 07:59:55;;;;;;;5.10;4.00;;;;;;;17.34;100.00;99073.78;5037628;28;20264;-75
2022/10/18 08:02:22;;;;;;;5.30;3.90;;;;;;;17.52;100.00;99083.00;5036807;28;20231;-73
2022/10/18 08:04:49;;;;;;;5.23;4.60;;;;;;;17.64;100.00;99073.97;5037705;28;20573;-74
2022/10/18 08:07:15;;;;;;;7.37;4.90;;;;;;;17.68;100.00;99074.56;5037684;28;20636;-73
2022/10/18 08:09:42;;;;;;;7.50;4.93;;;;;;;17.72;100.00;99071.50;5036580;28;20286;-73
2022/10/18 08:12:09;;;;;;;5.80;4.60;;;;;;;17.81;100.00;99083.25;5037590;28;20233;-74
2022/10/18 08:14:37;;;;;;;5.00;4.10;;;;;;;17.95;100.00;99080.25;5037462;28;20291;-75
2022/10/18 08:17:04;;;;;;;6.60;4.50;;;;;;;18.08;100.00;99080.91;5036772;28;20227;-74
2022/10/18 08:19:31;;;;;;;5.90;3.97;;;;;;;18.19;100.00;99079.03;5036196;28;20228;-74
2022/10/18 08:21:57;;;;;;;6.33;3.73;;;;;;;18.29;100.00;99079.94;5038294;28;20267;-74
2022/10/18 08:24:24;;;;;;;4.23;3.83;;;;;;;18.37;100.00;99087.34;5038238;28;20267;-74
2022/10/18 08:26:51;;;;;;;6.10;3.80;;;;;;;18.45;100.00;99087.53;5038228;28;20600;-74
2022/10/18 08:29:17;;;;;;;5.10;4.53;;;;;;;18.52;100.00;99099.44;5038050;28;20363;-74
2022/10/18 08:31:45;;;;;;;6.30;4.30;;;;;;;18.56;100.00;99103.53;5038253;28;20267;-75
2022/10/18 08:34:12;;;;;;;7.03;3.90;;;;;;;18.56;100.00;99108.88;5037924;28;20323;-74
2022/10/18 08:36:38;;;;;;;5.37;4.20;;;;;;;18.64;100.00;99106.38;5037372;28;20260;-73
2022/10/18 08:39:05;;;;;;;4.10;3.70;;;;;;;18.70;100.00;99098.69;5037950;28;20260;-74
2022/10/18 08:42:04;;;;;;;4.90;3.63;;;;;;;18.82;100.00;99097.63;5037867;28;20260;-74
2022/10/18 08:44:32;;;;;;;4.93;4.07;;;;;;;18.91;99.67;99094.13;5037829;28;20260;-74
2022/10/18 08:47:04;;;;;;;5.00;3.60;;;;;;;19.03;98.64;99081.50;5035955;28;20228;-75
2022/10/18 08:49:37;;;;;;;3.80;3.40;;;;;;;19.19;97.55;99077.31;5037706;28;20264;-75
2022/10/18 08:52:11;;;;;;;6.83;3.50;;;;;;;19.36;93.92;99068.63;5037709;28;20268;-74
2022/10/18 08:54:54;;;;;;;8.83;3.73;;;;;;;19.58;89.89;99063.00;5037432;28;20280;-74
2022/10/18 08:57:21;;;;;;;5.40;3.70;;;;;;;19.64;89.21;99062.44;5032022;28;20267;-75
2022/10/18 08:59:47;;;;;;;6.20;3.77;;;;;;;19.77;89.06;99073.78;5037527;28;20238;-74
2022/10/18 09:02:29;;;;;;;3.60;3.30;;;;;;;19.91;88.63;99067.97;5037555;28;20270;-74
2022/10/18 09:05:04;;;;;;;4.97;3.70;;;;;;;20.11;86.91;99071.53;5029323;28;20267;-74
2022/10/18 09:07:58;;;;;;;4.50;3.57;;;;;;;20.36;85.46;99061.03;5167605;27;20520;-73
2022/10/18 09:10:36;;;;;;;6.60;3.93;;;;;;;20.46;82.61;99045.75;5135467;28;20221;-74
2022/10/18 09:13:28;;;;;;;6.07;3.50;;;;;;;20.37;82.13;99057.34;5133624;28;20256;-73
2022/10/18 09:15:58;;;;;;;6.10;3.10;;;;;;;20.36;83.70;99079.81;5135231;28;20264;-73
2022/10/18 09:18:42;;;;;;;5.80;3.90;;;;;;;20.44;82.66;99077.28;5135164;28;20616;-73
2022/10/18 09:21:19;;;;;;;5.47;3.43;;;;;;;20.31;80.62;99070.53;5135145;28;20284;-73
2022/10/18 09:23:50;;;;;;;4.43;3.67;;;;;;;20.08;79.27;99067.31;5135116;28;20642;-73
2022/10/18 09:26:18;;;;;;;5.27;3.27;;;;;;;20.10;79.53;99068.00;5135066;28;20241;-74
2022/10/18 09:29:01;;;;;;;4.23;3.30;;;;;;;20.11;79.89;99072.38;5135108;27;20222;-76
2022/10/18 09:31:40;;;;;;;6.33;3.53;;;;;;;19.92;80.16;99071.50;5135039;28;20310;-75
2022/10/18 09:34:11;;;;;;;4.93;3.03;;;;;;;19.58;82.28;99083.63;5134984;28;20295;-73
2022/10/18 09:36:39;;;;;;;6.57;4.07;;;;;;;19.38;84.08;99095.31;5134868;28;20331;-74
2022/10/18 09:39:12;;;;;;;5.17;3.30;;;;;;;19.34;84.70;99102.78;5133161;28;20274;-73
2022/10/18 09:41:44;;;;;;;7.87;3.87;;;;;;;19.10;85.50;99109.44;5134917;28;20608;-73
2022/10/18 09:44:17;;;;;;;6.73;3.43;;;;;;;19.03;86.54;99114.47;5134811;28;20266;-73
2022/10/18 09:46:47;;;;;;;4.93;3.87;;;;;;;18.87;87.83;99114.13;5134725;28;20281;-73
2022/10/18 09:49:19;;;;;;;6.00;3.57;;;;;;;18.84;88.83;99125.09;5134869;28;20291;-74
2022/10/18 09:51:48;;;;;;;8.43;3.90;;;;;;;18.89;89.09;99120.19;5134759;28;20256;-74
2022/10/18 09:54:24;;;;;;;6.17;4.20;;;;;;;18.77;90.25;99121.25;5134496;28;20267;-74
2022/10/18 09:56:55;;;;;;;9.27;4.07;;;;;;;18.76;90.72;99126.75;5134528;28;20253;-74
2022/10/18 09:59:32;;;;;;;4.83;3.60;;;;;;;18.59;90.22;99130.88;5134506;27;20260;-74
2022/10/18 10:01:59;;;;;;;6.37;4.10;;;;;;;18.57;90.45;99127.50;5134497;28;20264;-74
2022/10/18 10:04:26;;;;;;;4.80;3.80;;;;;;;18.58;91.38;99128.34;5132663;27;20595;-75
2022/10/18 10:06:54;;;;;;;5.60;3.93;;;;;;;18.60;93.03;99137.94;5134598;28;20594;-75
2022/10/18 10:09:28;;;;;;;6.70;4.07;;;;;;;18.77;92.11;99123.94;5134576;28;20266;-74
2022/10/18 10:11:55;;;;;;;6.93;3.87;;;;;;;18.95;91.37;99133.06;5134573;28;20307;-75
2022/10/18 10:14:24;;;;;;;4.40;3.60;;;;;;;19.03;89.41;99119.84;5134654;28;20221;-75
2022/10/18 10:16:53;;;;;;;5.63;3.77;;;;;;;19.09;88.98;99116.59;5133674;28;20312;-74
2022/10/18 10:19:23;;;;;;;5.03;4.00;;;;;;;19.13;89.04;99126.09;5120525;28;20257;-74
2022/10/18 10:21:53;;;;;;;7.17;4.53;;;;;;;19.11;88.97;99117.34;5124944;28;20271;-75
2022/10/18 10:24:26;;;;;;;8.03;4.30;;;;;;;19.17;89.57;99121.31;5135077;28;20234;-74
2022/10/18 10:27:00;;;;;;;6.40;4.20;;;;;;;19.24;89.56;99126.03;5134469;28;20230;-75
2022/10/18 10:29:50;;;;;;;6.13;4.37;;;;;;;19.31;88.67;99113.78;5134816;28;20299;-75
2022/10/18 10:32:19;;;;;;;4.77;3.97;;;;;;;19.34;90.37;99108.16;5117387;28;20233;-75
2022/10/18 10:34:45;;;;;;;4.83;3.70;;;;;;;19.44;89.37;99109.00;5133531;28;20222;-74
2022/10/18 10:37:27;;;;;;;9.40;3.70;;;;;;;19.52;89.08;99106.47;5131635;28;20225;-75
2022/10/18 10:40:14;;;;;;;5.27;3.70;;;;;;;19.58;88.43;99105.91;5122389;28;20261;-73
2022/10/18 10:43:02;;;;;;;4.87;3.30;;;;;;;19.67;89.40;99109.59;5117240;28;20285;-74
2022/10/18 10:45:31;;;;;;;7.37;3.93;;;;;;;19.81;90.15;99103.84;5118764;28;20259;-74
2022/10/18 10:48:06;;;;;;;8.27;3.67;;;;;;;19.89;89.88;99110.22;5118838;28;20304;-73
2022/10/18 10:50:54;;;;;;;6.33;3.70;;;;;;;20.01;88.53;99101.03;5115147;28;20550;-73
2022/10/18 10:53:34;;;;;;;5.03;3.33;;;;;;;20.05;88.46;99099.75;5118517;28;20263;-74
2022/10/18 10:56:04;;;;;;;4.37;3.03;;;;;;;20.16;88.22;99096.97;5118510;28;20265;-74
2022/10/18 10:58:36;;;;;;;7.77;3.80;;;;;;;20.23;86.78;99092.72;5110044;28;20226;-75
2022/10/18 11:01:18;;;;;;;3.87;3.07;;;;;;;20.30;85.89;99093.00;5118504;28;20233;-74
2022/10/18 11:03:46;;;;;;;5.93;3.30;;;;;;;20.38;85.56;99093.13;5112220;28;20260;-74
2022/10/18 11:06:31;;;;;;;3.90;3.23;;;;;;;20.44;85.84;99090.72;5118466;28;20339;-74
2022/10/18 11:09:00;;;;;;;6.73;3.23;;;;;;;20.53;86.44;99097.88;5117989;28;20327;-73
2022/10/18 11:11:33;;;;;;;5.13;3.23;;;;;;;20.55;86.73;99093.22;5117640;28;20265;-75
2022/10/18 11:14:05;;;;;;;4.33;3.40;;;;;;;20.45;84.76;99076.28;5118516;28;20275;-73
2022/10/18 11:16:36;;;;;;;3.40;3.10;;;;;;;20.34;86.44;99094.38;5119257;28;20257;-74
2022/10/18 11:19:11;;;;;;;4.30;3.20;;;;;;;20.34;87.46;99094.38;5119126;28;20233;-74
2022/10/18 11:21:39;;;;;;;5.00;3.03;;;;;;;20.63;86.27;99085.28;5119085;28;20257;-74
2022/10/18 11:24:13;;;;;;;5.20;3.20;;;;;;;21.06;83.39;99072.16;5108649;28;20572;-74
2022/10/18 11:26:51;;;;;;;4.07;3.07;;;;;;;21.24;81.37;99069.50;5118999;28;20299;-74
2022/10/18 11:29:43;;;;;;;3.90;3.00;;;;;;;21.29;80.48;99061.84;5117987;28;20224;-74
2022/10/18 11:32:19;;;;;;;4.77;2.90;;;;;;;21.44;77.36;99039.66;5111723;28;20222;-74
2022/10/18 11:34:58;;;;;;;5.20;2.70;;;;;;;21.57;75.74;99028.53;5118680;28;20252;-74
2022/10/18 11:37:42;;;;;;;4.53;2.53;;;;;;;21.80;76.20;99035.16;5118683;28;20253;-74
2022/10/18 11:40:25;;;;;;;4.93;3.27;;;;;;;21.91;75.64;99038.47;5118706;28;20263;-74